Time;durP1;ratioP1;P1;durP2;ratioP2;P2;SDS_P1;SDS_P2;PMS_P1;PMS_P2;Temp;Humidity;BMP_temperature;BMP_pressure;BME280_temperature;BME280_humidity;BME280_pressure;Samples;Min_cycle;Max_cycle;Signal;HPM_P1;HPM_P2
2024/02/24 00:04:56;;;;;;;7.28;2.40;;;;;;;4.99;68.52;98482.34;10367245;28;20060;-61
2024/02/24 00:09:57;;;;;;;6.72;2.15;;;;;;;4.90;68.54;98492.28;10370338;28;20050;-61
2024/02/24 00:14:59;;;;;;;7.00;2.88;;;;;;;4.99;68.19;98498.31;10375665;28;20041;-60
2024/02/24 00:20:00;;;;;;;10.15;2.72;;;;;;;5.02;68.11;98500.63;10369611;28;20523;-60
2024/02/24 00:25:02;;;;;;;6.25;2.42;;;;;;;4.99;68.52;98506.28;10369437;28;20049;-59
2024/02/24 00:30:04;;;;;;;8.07;3.00;;;;;;;5.03;68.76;98504.91;10371050;28;20144;-60
2024/02/24 00:35:06;;;;;;;10.23;2.78;;;;;;;5.05;68.25;98496.75;10373143;28;20060;-60
2024/02/24 00:40:09;;;;;;;5.90;3.10;;;;;;;5.02;68.75;98505.13;10356403;28;20417;-59
2024/02/24 00:45:11;;;;;;;6.63;2.13;;;;;;;4.96;68.90;98510.16;10369724;28;20132;-60
2024/02/24 00:50:13;;;;;;;6.60;2.10;;;;;;;4.97;68.63;98514.47;10371716;28;20489;-60
2024/02/24 00:55:14;;;;;;;3.60;1.65;;;;;;;4.97;68.26;98517.13;10371877;28;20411;-60
2024/02/24 01:00:17;;;;;;;7.50;1.90;;;;;;;5.03;68.43;98504.91;10369059;28;20048;-60
2024/02/24 01:05:19;;;;;;;6.82;2.13;;;;;;;5.02;68.39;98508.59;10367224;28;20045;-59
2024/02/24 01:10:21;;;;;;;5.50;1.67;;;;;;;4.99;68.89;98516.13;10356042;28;20038;-60
2024/02/24 01:15:22;;;;;;;7.13;1.80;;;;;;;5.00;69.25;98528.44;10371312;28;20087;-61
2024/02/24 01:20:25;;;;;;;9.20;2.38;;;;;;;5.24;68.55;98517.47;10365719;28;20056;-61
2024/02/24 01:25:27;;;;;;;8.98;1.77;;;;;;;5.46;68.53;98513.00;10369041;28;20060;-60
2024/02/24 01:30:28;;;;;;;6.80;1.55;;;;;;;5.65;68.37;98519.56;10373005;28;20080;-61
2024/02/24 01:35:29;;;;;;;6.03;1.83;;;;;;;5.79;68.10;98514.38;10368918;28;20053;-62
2024/02/24 01:40:31;;;;;;;4.65;1.27;;;;;;;5.89;68.55;98512.19;10367617;28;20038;-61
2024/02/24 01:45:33;;;;;;;7.43;2.45;;;;;;;5.92;68.69;98512.63;10366695;28;20122;-61
2024/02/24 01:50:38;;;;;;;10.30;1.58;;;;;;;5.96;68.55;98515.75;10371940;28;20046;-62
2024/02/24 01:55:40;;;;;;;6.13;1.77;;;;;;;5.99;68.31;98517.25;10376164;28;20127;-61
2024/02/24 02:00:41;;;;;;;5.50;1.88;;;;;;;6.01;68.89;98524.03;10370125;28;20053;-61
2024/02/24 02:05:43;;;;;;;4.57;1.83;;;;;;;6.04;69.12;98525.47;10368589;28;20049;-62
2024/02/24 02:10:46;;;;;;;4.80;1.73;;;;;;;6.13;68.21;98521.66;10372486;28;20459;-61
2024/02/24 02:15:52;;;;;;;5.28;1.73;;;;;;;6.20;68.21;98527.03;10374520;28;20053;-61
2024/02/24 02:20:54;;;;;;;7.07;1.48;;;;;;;6.25;68.40;98524.63;10370950;28;20050;-61
2024/02/24 02:25:56;;;;;;;4.82;1.50;;;;;;;6.31;68.68;98519.34;10375519;28;20046;-66
2024/02/24 02:30:57;;;;;;;5.30;1.05;;;;;;;6.41;68.42;98513.66;10377476;28;20045;-62
2024/02/24 02:36:00;;;;;;;7.43;1.48;;;;;;;6.49;68.79;98523.34;10375125;28;20443;-65
2024/02/24 02:41:02;;;;;;;3.35;1.10;;;;;;;6.54;68.35;98529.78;10376464;28;20107;-66
2024/02/24 02:46:03;;;;;;;3.05;1.08;;;;;;;6.59;68.26;98525.69;10369957;28;20042;-65
2024/02/24 02:51:06;;;;;;;6.68;1.60;;;;;;;6.64;68.37;98523.25;10378567;28;20233;-66
2024/02/24 02:56:12;;;;;;;2.63;0.90;;;;;;;6.70;67.92;98530.50;10381536;28;20049;-65
2024/02/24 03:01:13;;;;;;;5.35;1.00;;;;;;;6.72;68.17;98531.94;10375011;28;20148;-65
2024/02/24 03:06:15;;;;;;;3.63;1.00;;;;;;;6.78;68.17;98535.66;10375693;28;20053;-67
2024/02/24 03:11:19;;;;;;;6.35;1.73;;;;;;;6.85;67.89;98533.88;10369661;28;20058;-67
2024/02/24 03:16:21;;;;;;;4.93;1.15;;;;;;;6.94;67.73;98546.03;10371048;28;20037;-65
2024/02/24 03:21:32;;;;;;;2.85;0.98;;;;;;;7.03;68.25;98551.19;10370506;28;20145;-67
2024/02/24 03:26:33;;;;;;;3.63;0.80;;;;;;;7.07;68.42;98549.78;10376697;28;20049;-66
2024/02/24 03:31:35;;;;;;;4.18;1.00;;;;;;;7.11;68.00;98551.06;10355369;28;20057;-65
2024/02/24 03:36:36;;;;;;;4.82;0.80;;;;;;;7.19;68.69;98547.38;10369534;28;20049;-65
2024/02/24 03:41:38;;;;;;;3.38;0.70;;;;;;;7.31;67.66;98551.97;10371303;28;20050;-66
2024/02/24 03:46:40;;;;;;;4.32;0.70;;;;;;;7.37;67.88;98554.88;10380242;28;20230;-65
2024/02/24 03:51:41;;;;;;;4.20;0.77;;;;;;;7.41;68.04;98558.78;10370560;28;20050;-65
2024/02/24 03:56:43;;;;;;;5.78;0.60;;;;;;;7.51;67.87;98565.41;10357332;28;20084;-66
2024/02/24 04:01:44;;;;;;;4.80;1.02;;;;;;;7.55;67.77;98569.31;10373443;28;20044;-66
2024/02/24 04:06:46;;;;;;;6.93;1.20;;;;;;;7.68;67.41;98560.53;10371737;28;20041;-65
2024/02/24 04:11:48;;;;;;;3.25;0.65;;;;;;;7.75;67.02;98566.69;10370867;28;20046;-67
2024/02/24 04:16:50;;;;;;;3.35;0.80;;;;;;;7.72;67.29;98559.09;10375998;28;20053;-66
2024/02/24 04:21:51;;;;;;;4.05;0.90;;;;;;;7.72;67.22;98563.59;10366800;28;20261;-66
2024/02/24 04:26:53;;;;;;;2.67;0.60;;;;;;;7.71;67.03;98568.13;10372559;28;20424;-66
2024/02/24 04:31:54;;;;;;;4.20;0.60;;;;;;;7.56;67.03;98575.47;10372109;28;20054;-65
2024/02/24 04:36:56;;;;;;;2.13;0.88;;;;;;;7.36;67.32;98575.41;10376209;28;20523;-64
2024/02/24 04:41:57;;;;;;;2.58;0.52;;;;;;;7.35;67.21;98587.13;10364970;28;20052;-64
2024/02/24 04:46:59;;;;;;;2.58;0.55;;;;;;;7.38;67.84;98586.72;10371468;28;20073;-60
2024/02/24 04:52:00;;;;;;;1.55;0.50;;;;;;;7.41;67.66;98597.03;10369244;28;20716;-60
2024/02/24 04:57:01;;;;;;;3.97;0.60;;;;;;;7.45;67.53;98592.94;10367461;28;20519;-59
2024/02/24 05:02:03;;;;;;;0.60;0.38;;;;;;;7.53;67.52;98594.63;10376629;28;20432;-60
2024/02/24 05:07:05;;;;;;;1.42;0.40;;;;;;;7.61;67.31;98594.44;10370555;28;20050;-60
2024/02/24 05:12:06;;;;;;;1.20;0.40;;;;;;;7.57;67.23;98606.56;10368645;28;20096;-59
2024/02/24 05:17:08;;;;;;;3.25;0.40;;;;;;;7.52;67.21;98612.50;10363751;28;20052;-60
2024/02/24 05:22:09;;;;;;;1.92;0.50;;;;;;;7.52;66.91;98615.19;10363034;28;20057;-60
2024/02/24 05:27:11;;;;;;;2.17;0.52;;;;;;;7.43;67.06;98618.22;10375855;28;20054;-59
2024/02/24 05:32:16;;;;;;;1.40;0.40;;;;;;;7.28;67.33;98627.19;10368585;28;20049;-60
2024/02/24 05:37:17;;;;;;;3.00;0.45;;;;;;;7.13;67.62;98618.47;10370842;28;20053;-59
2024/02/24 05:42:19;;;;;;;4.07;0.50;;;;;;;7.08;67.50;98604.88;10367031;28;20104;-59
2024/02/24 05:47:20;;;;;;;2.65;0.60;;;;;;;7.03;67.33;98612.63;10372826;28;20045;-60
2024/02/24 05:52:22;;;;;;;0.77;0.40;;;;;;;6.84;67.84;98641.69;10376571;28;20614;-59
2024/02/24 05:57:24;;;;;;;0.98;0.40;;;;;;;6.80;67.48;98652.97;10375675;28;20391;-67
2024/02/24 06:02:25;;;;;;;0.93;0.40;;;;;;;6.84;67.37;98656.91;10376115;28;20068;-67
2024/02/24 06:07:27;;;;;;;1.30;0.40;;;;;;;6.98;67.47;98661.31;10378636;28;20053;-67
2024/02/24 06:12:28;;;;;;;2.95;0.43;;;;;;;7.13;67.78;98662.06;10379766;28;20045;-64
2024/02/24 06:17:30;;;;;;;4.95;0.52;;;;;;;7.19;67.44;98667.63;10358532;28;20046;-66
2024/02/24 06:22:31;;;;;;;1.48;0.47;;;;;;;7.20;67.89;98655.91;10353535;28;20080;-64
2024/02/24 06:27:33;;;;;;;1.80;0.40;;;;;;;7.35;67.26;98660.13;10378747;28;20084;-64
2024/02/24 06:32:34;;;;;;;1.25;0.60;;;;;;;7.43;67.26;98671.69;10375966;28;20054;-64
2024/02/24 06:37:36;;;;;;;1.33;0.40;;;;;;;7.44;67.30;98673.31;10358828;28;20127;-64
2024/02/24 06:42:37;;;;;;;1.33;0.60;;;;;;;7.39;68.42;98678.44;10378956;28;20059;-64
2024/02/24 06:47:39;;;;;;;3.22;1.38;;;;;;;7.46;67.99;98681.97;10378159;28;20042;-63
2024/02/24 06:52:40;;;;;;;0.93;0.50;;;;;;;7.52;68.04;98691.88;10371308;28;20064;-63
2024/02/24 06:57:45;;;;;;;1.10;0.50;;;;;;;7.55;68.18;98696.84;10368660;28;20057;-63
2024/02/24 07:02:47;;;;;;;2.55;0.47;;;;;;;7.53;68.09;98705.06;10369549;28;20053;-63
2024/02/24 07:07:48;;;;;;;0.73;0.40;;;;;;;7.66;68.35;98711.47;10368393;28;20049;-68
2024/02/24 07:12:50;;;;;;;1.63;0.40;;;;;;;7.71;68.10;98717.91;10365044;28;20076;-69
2024/02/24 07:17:52;;;;;;;2.90;0.77;;;;;;;7.80;67.91;98712.38;10377728;28;20041;-68
2024/02/24 07:22:53;;;;;;;6.00;1.08;;;;;;;7.84;68.27;98727.84;10372327;28;20073;-67
2024/02/24 07:27:55;;;;;;;0.88;0.40;;;;;;;7.81;68.22;98728.22;10364494;28;20042;-69
2024/02/24 07:32:57;;;;;;;3.70;0.30;;;;;;;7.83;67.83;98742.22;10375768;28;20374;-66
2024/02/24 07:37:58;;;;;;;2.35;0.30;;;;;;;7.94;67.55;98751.56;10367738;28;20135;-70
2024/02/24 07:43:01;;;;;;;0.75;0.55;;;;;;;7.96;68.17;98762.91;10372553;28;20666;-67
2024/02/24 07:48:06;;;;;;;0.40;0.30;;;;;;;7.94;68.18;98763.09;10364574;28;20073;-69
2024/02/24 07:53:08;;;;;;;0.68;0.30;;;;;;;7.95;68.08;98763.91;10372685;28;20092;-69
2024/02/24 07:58:09;;;;;;;0.47;0.20;;;;;;;7.81;68.61;98780.91;10363730;28;20100;-70
2024/02/24 08:03:11;;;;;;;1.90;0.32;;;;;;;7.47;69.43;98780.69;10366845;28;20041;-69
2024/02/24 08:08:12;;;;;;;0.55;0.20;;;;;;;7.37;69.86;98784.75;10367258;28;20498;-68
2024/02/24 08:13:14;;;;;;;0.50;0.10;;;;;;;7.28;69.63;98792.88;10362929;28;20049;-67
2024/02/24 08:18:15;;;;;;;0.63;0.13;;;;;;;7.26;69.81;98789.56;10371332;28;20060;-62
2024/02/24 08:23:17;;;;;;;1.38;0.20;;;;;;;7.38;69.65;98791.72;10372369;28;20463;-62
2024/02/24 08:28:18;;;;;;;0.15;0.08;;;;;;;7.55;69.61;98806.47;10366187;28;20048;-63
2024/02/24 08:33:22;;;;;;;0.20;0.00;;;;;;;7.61;69.56;98807.53;10382529;28;20118;-63
2024/02/24 08:38:27;;;;;;;0.10;0.00;;;;;;;7.66;69.87;98805.94;10376158;28;20041;-64
2024/02/24 08:43:28;;;;;;;0.47;0.10;;;;;;;7.67;69.91;98809.44;10381556;28;20104;-64
2024/02/24 08:48:30;;;;;;;0.45;0.10;;;;;;;7.61;69.49;98828.94;10379773;28;20054;-69
2024/02/24 08:53:32;;;;;;;0.38;0.10;;;;;;;7.52;69.46;98834.41;10355281;28;20509;-68
2024/02/24 08:58:33;;;;;;;0.30;0.10;;;;;;;7.48;69.68;98851.03;10371208;28;20057;-67
2024/02/24 09:03:35;;;;;;;1.83;0.10;;;;;;;7.27;70.94;98854.56;10361404;28;20045;-62
2024/02/24 09:08:39;;;;;;;0.22;0.15;;;;;;;7.19;70.99;98862.69;10401557;28;20050;-63
2024/02/24 09:13:41;;;;;;;0.52;0.10;;;;;;;7.13;70.97;98869.66;10392373;28;20049;-62
2024/02/24 09:18:42;;;;;;;1.52;0.20;;;;;;;7.13;71.83;98869.66;10414758;28;20084;-63
2024/02/24 09:23:44;;;;;;;0.20;0.20;;;;;;;6.95;71.91;98886.94;10410932;28;20041;-63
2024/02/24 09:28:45;;;;;;;0.10;0.10;;;;;;;6.91;72.55;98888.31;10397500;28;20443;-68
2024/02/24 09:33:54;;;;;;;0.25;0.25;;;;;;;6.94;72.50;98890.59;10374112;28;20052;-66
2024/02/24 09:38:55;;;;;;;0.32;0.10;;;;;;;7.01;72.73;98900.53;10372179;28;20046;-67
2024/02/24 09:43:57;;;;;;;2.35;0.32;;;;;;;7.11;72.71;98907.25;10373017;28;20053;-64
2024/02/24 09:48:59;;;;;;;2.17;0.50;;;;;;;7.16;73.49;98917.34;10372504;28;20062;-68
2024/02/24 09:54:01;;;;;;;2.83;0.88;;;;;;;7.31;73.46;98915.44;10371998;28;20053;-69
2024/02/24 09:59:03;;;;;;;1.10;0.40;;;;;;;7.51;72.26;98930.88;10370657;28;20440;-68
2024/02/24 10:04:06;;;;;;;2.95;0.70;;;;;;;7.69;72.41;98941.91;10378466;28;20049;-68
2024/02/24 10:09:09;;;;;;;1.30;0.35;;;;;;;7.98;72.01;98942.78;10373202;28;20049;-68
2024/02/24 10:14:10;;;;;;;0.50;0.20;;;;;;;8.13;71.55;98967.59;10360769;28;20058;-68
2024/02/24 10:19:12;;;;;;;1.90;0.10;;;;;;;8.45;70.98;98954.69;10377372;28;20516;-70
2024/02/24 10:24:13;;;;;;;2.05;0.60;;;;;;;8.83;70.22;98956.13;10376338;28;20666;-65
2024/02/24 10:29:15;;;;;;;0.10;0.00;;;;;;;8.78;69.65;98967.41;10377263;28;20042;-69
2024/02/24 10:34:17;;;;;;;1.85;0.10;;;;;;;8.80;67.34;98962.69;10371299;28;20037;-69
2024/02/24 10:39:19;;;;;;;0.30;0.08;;;;;;;8.91;65.98;98980.88;10376892;28;20042;-62
2024/02/24 10:44:21;;;;;;;0.00;0.00;;;;;;;8.90;65.19;98973.84;10403499;28;20149;-62
2024/02/24 10:49:24;;;;;;;0.00;0.00;;;;;;;8.86;65.09;98983.31;10413279;28;20046;-62
2024/02/24 10:54:31;;;;;;;0.98;0.20;;;;;;;8.79;64.48;99003.06;10406823;28;20046;-63
2024/02/24 10:59:32;;;;;;;0.20;0.10;;;;;;;8.64;63.91;99009.38;10389294;28;20054;-62
2024/02/24 11:04:35;;;;;;;0.57;0.10;;;;;;;8.73;63.40;99012.75;10376837;28;20049;-63
2024/02/24 11:09:38;;;;;;;2.25;0.10;;;;;;;8.49;64.17;99008.66;10377475;28;20048;-63
2024/02/24 11:14:42;;;;;;;0.95;0.15;;;;;;;8.04;64.92;99022.28;10395944;28;20082;-63
2024/02/24 11:19:47;;;;;;;2.25;0.10;;;;;;;8.10;65.32;99023.38;10408993;28;20111;-63
2024/02/24 11:25:03;;;;;;;0.08;0.00;;;;;;;7.94;65.72;99041.34;10408988;28;20160;-63
2024/02/24 11:30:37;;;;;;;0.80;0.10;;;;;;;7.90;65.53;99036.56;10403294;28;20038;-63
2024/02/24 11:35:39;;;;;;;1.27;0.00;;;;;;;8.29;65.39;99037.94;10406449;28;20041;-63
2024/02/24 11:40:44;;;;;;;0.68;0.10;;;;;;;8.72;64.82;99032.50;10405250;28;20485;-63
2024/02/24 11:45:53;;;;;;;0.20;0.00;;;;;;;8.95;64.52;99031.41;10392406;28;20749;-63
2024/02/24 11:50:54;;;;;;;0.05;0.00;;;;;;;9.26;63.57;99042.50;10373177;28;20042;-62
2024/02/24 11:55:56;;;;;;;0.10;0.03;;;;;;;9.35;63.21;99036.94;10369970;28;20133;-62
2024/02/24 12:00:57;;;;;;;0.10;0.10;;;;;;;8.97;63.00;99037.41;10370978;28;20042;-62
2024/02/24 12:06:03;;;;;;;0.10;0.10;;;;;;;9.14;62.58;99038.69;10363664;28;20942;-62
2024/02/24 12:11:05;;;;;;;1.58;0.68;;;;;;;9.37;61.81;99037.56;10365034;28;20048;-61
2024/02/24 12:16:07;;;;;;;0.30;0.00;;;;;;;9.72;60.81;99033.75;10370731;28;20501;-61
2024/02/24 12:21:12;;;;;;;2.03;0.10;;;;;;;9.92;60.39;99030.28;10367839;28;20049;-61
2024/02/24 12:26:16;;;;;;;0.60;0.00;;;;;;;10.06;59.46;99033.81;10368605;28;20562;-61
2024/02/24 12:31:18;;;;;;;0.10;0.00;;;;;;;9.96;58.91;99033.41;10365545;28;20662;-64
2024/02/24 12:36:19;;;;;;;1.15;0.00;;;;;;;9.98;58.78;99028.66;10363969;28;20060;-62
2024/02/24 12:41:21;;;;;;;0.80;0.10;;;;;;;10.13;58.23;99034.66;10371968;28;20041;-61
2024/02/24 12:46:22;;;;;;;0.55;0.10;;;;;;;10.11;58.34;99042.91;10364532;28;20053;-62
2024/02/24 12:51:24;;;;;;;0.52;0.10;;;;;;;10.60;56.80;99037.34;10364430;28;20049;-63
2024/02/24 12:56:25;;;;;;;0.20;0.10;;;;;;;10.87;56.14;99041.63;10365925;28;20041;-61
2024/02/24 13:01:27;;;;;;;0.95;0.10;;;;;;;11.16;55.61;99035.97;10366451;28;20047;-64
2024/02/24 13:06:28;;;;;;;0.75;0.10;;;;;;;11.35;54.67;99037.75;10362993;28;20046;-66
2024/02/24 13:11:30;;;;;;;1.77;0.20;;;;;;;11.77;53.94;99029.25;10365367;28;20057;-68
2024/02/24 13:16:31;;;;;;;0.45;0.20;;;;;;;11.58;54.04;99041.81;10363927;28;20067;-67
2024/02/24 13:21:33;;;;;;;0.65;0.40;;;;;;;11.30;54.02;99046.47;10360746;28;20056;-70
2024/02/24 13:26:35;;;;;;;0.45;0.08;;;;;;;11.40;53.94;99046.03;10361686;28;20141;-67
2024/02/24 13:31:37;;;;;;;1.95;0.10;;;;;;;11.36;53.70;99049.34;10362597;28;20049;-69
2024/02/24 13:36:38;;;;;;;0.88;0.10;;;;;;;11.13;54.20;99042.59;10360346;28;20094;-70
2024/02/24 13:41:40;;;;;;;0.65;0.10;;;;;;;11.05;53.68;99064.34;10359154;28;20049;-66
2024/02/24 13:46:52;;;;;;;0.10;0.08;;;;;;;11.10;53.76;99064.56;10367329;28;20371;-68
2024/02/24 13:51:53;;;;;;;0.38;0.10;;;;;;;12.43;51.27;99050.38;10371291;28;20038;-67
2024/02/24 13:56:56;;;;;;;0.08;0.00;;;;;;;11.92;51.90;99056.75;10367759;28;20052;-68
2024/02/24 14:01:58;;;;;;;0.52;0.10;;;;;;;11.86;52.54;99066.47;10368917;28;20053;-68
2024/02/24 14:07:00;;;;;;;1.17;0.10;;;;;;;12.11;51.84;99060.38;10369041;28;20073;-62
2024/02/24 14:12:04;;;;;;;0.10;0.00;;;;;;;11.96;52.08;99060.66;10372590;28;20051;-64
2024/02/24 14:17:06;;;;;;;1.83;0.08;;;;;;;11.75;52.27;99074.41;10376085;28;20043;-67
2024/02/24 14:22:07;;;;;;;0.57;0.10;;;;;;;11.50;52.47;99085.94;10379168;28;20049;-67
2024/02/24 14:27:09;;;;;;;0.40;0.10;;;;;;;11.36;52.78;99095.09;10378695;28;20045;-68
2024/02/24 14:32:11;;;;;;;0.93;0.03;;;;;;;11.24;53.68;99109.19;10371165;28;20214;-69
2024/02/24 14:37:13;;;;;;;0.28;0.10;;;;;;;14.63;46.70;99068.41;10374090;28;20050;-67
2024/02/24 14:42:14;;;;;;;0.20;0.10;;;;;;;15.26;46.20;99073.13;10379428;28;20056;-67
2024/02/24 14:47:16;;;;;;;1.20;0.10;;;;;;;13.92;49.90;99081.78;10381428;28;20050;-68
2024/02/24 14:52:18;;;;;;;0.43;0.00;;;;;;;15.16;48.59;99072.88;10368441;28;20049;-67
2024/02/24 14:57:19;;;;;;;0.57;0.10;;;;;;;15.16;48.30;99066.66;10373964;28;20041;-69
2024/02/24 15:02:21;;;;;;;1.10;0.15;;;;;;;13.88;49.00;99083.25;10381021;28;20054;-68
2024/02/24 15:07:40;;;;;;;0.65;0.10;;;;;;;12.81;48.62;99095.22;10375542;28;20053;-68
2024/02/24 15:12:44;;;;;;;0.20;0.10;;;;;;;12.52;47.92;99104.00;10367952;28;20053;-67
2024/02/24 15:17:45;;;;;;;0.20;0.20;;;;;;;12.10;47.55;99107.19;10363901;28;20493;-67
2024/02/24 15:22:48;;;;;;;1.90;0.30;;;;;;;12.34;46.45;99097.47;10372517;28;20081;-67
2024/02/24 15:27:49;;;;;;;0.80;0.20;;;;;;;13.20;44.97;99101.28;10372249;28;20120;-68
2024/02/24 15:32:56;;;;;;;1.67;0.20;;;;;;;12.92;45.27;99103.66;10371956;28;20053;-64
2024/02/24 15:37:58;;;;;;;1.67;0.20;;;;;;;12.36;45.78;99103.50;10368365;28;20080;-64
2024/02/24 15:43:03;;;;;;;0.82;0.13;;;;;;;11.88;46.78;99123.63;10369801;28;20048;-68
2024/02/24 15:48:05;;;;;;;0.43;0.17;;;;;;;11.59;46.80;99132.25;10359023;28;20060;-65
2024/02/24 15:53:06;;;;;;;0.73;0.20;;;;;;;11.40;47.55;99136.69;10362010;28;20045;-66
2024/02/24 15:58:08;;;;;;;0.90;0.15;;;;;;;11.10;47.78;99145.22;10363247;28;20045;-67
2024/02/24 16:03:09;;;;;;;14.50;3.38;;;;;;;10.99;48.32;99149.38;10368048;28;20048;-66
2024/02/24 16:08:11;;;;;;;2.17;0.20;;;;;;;10.85;48.72;99155.78;10367453;28;20046;-66
2024/02/24 16:13:15;;;;;;;1.00;0.30;;;;;;;10.78;48.62;99157.66;10370364;28;20080;-66
2024/02/24 16:18:16;;;;;;;0.50;0.20;;;;;;;10.78;49.21;99163.88;10373760;28;20046;-65
2024/02/24 16:23:18;;;;;;;0.60;0.20;;;;;;;10.71;49.80;99181.84;10364532;28;20131;-67
2024/02/24 16:28:19;;;;;;;1.77;0.50;;;;;;;10.39;50.92;99175.41;10367317;28;20052;-59
2024/02/24 16:33:21;;;;;;;1.77;0.40;;;;;;;10.25;51.69;99172.66;10379863;28;20056;-61
2024/02/24 16:38:22;;;;;;;0.70;0.40;;;;;;;10.22;52.00;99180.28;10396729;28;20050;-63
2024/02/24 16:43:24;;;;;;;5.68;0.60;;;;;;;10.12;52.49;99181.50;10402727;28;20061;-61
2024/02/24 16:48:25;;;;;;;1.75;0.40;;;;;;;10.06;52.90;99181.47;10402647;28;20042;-64
2024/02/24 16:53:27;;;;;;;2.33;0.47;;;;;;;10.02;53.10;99186.41;10393146;28;20046;-64
2024/02/24 16:58:28;;;;;;;1.83;0.22;;;;;;;9.98;53.35;99174.44;10406559;28;20049;-64
2024/02/24 17:03:30;;;;;;;0.43;0.20;;;;;;;9.98;53.14;99187.84;10412934;28;20481;-61
2024/02/24 17:08:31;;;;;;;0.82;0.65;;;;;;;10.00;53.35;99199.22;10403004;28;20409;-64
2024/02/24 17:13:33;;;;;;;0.45;0.10;;;;;;;9.98;53.39;99198.59;10399643;28;20085;-60
2024/02/24 17:18:37;;;;;;;0.50;0.17;;;;;;;9.91;53.22;99206.63;10384759;28;20050;-60
2024/02/24 17:23:41;;;;;;;0.95;0.20;;;;;;;9.89;53.44;99213.19;10358602;28;20046;-56
2024/02/24 17:28:43;;;;;;;0.98;0.20;;;;;;;9.91;53.46;99219.19;10360611;28;20060;-56
2024/02/24 17:33:46;;;;;;;0.40;0.20;;;;;;;9.88;53.60;99224.97;10371937;28;20157;-56
2024/02/24 17:38:47;;;;;;;2.90;0.82;;;;;;;9.85;53.47;99236.94;10362771;28;20041;-57
2024/02/24 17:43:49;;;;;;;1.50;0.10;;;;;;;9.77;53.98;99247.00;10362622;28;20064;-59
2024/02/24 17:48:50;;;;;;;1.00;0.20;;;;;;;9.71;54.09;99257.50;10371387;28;20532;-57
2024/02/24 17:53:52;;;;;;;1.95;0.20;;;;;;;9.51;54.59;99257.38;10375134;28;20122;-57
2024/02/24 17:58:53;;;;;;;1.20;0.10;;;;;;;9.32;54.99;99261.59;10368869;28;20139;-57
2024/02/24 18:03:55;;;;;;;2.78;0.30;;;;;;;9.06;55.67;99261.34;10368790;28;20157;-57
2024/02/24 18:08:57;;;;;;;0.45;0.22;;;;;;;8.91;55.84;99259.59;10369261;28;20062;-59
2024/02/24 18:13:59;;;;;;;1.13;0.20;;;;;;;8.75;56.18;99273.25;10376116;28;20788;-58
2024/02/24 18:19:02;;;;;;;0.68;0.10;;;;;;;8.59;56.46;99278.84;10373710;28;20034;-57
2024/02/24 18:24:04;;;;;;;0.50;0.25;;;;;;;8.54;56.17;99282.09;10372848;28;20058;-57
2024/02/24 18:29:06;;;;;;;2.05;0.22;;;;;;;8.45;56.23;99277.84;10368651;28;20041;-57
2024/02/24 18:34:07;;;;;;;1.67;0.20;;;;;;;8.32;56.57;99299.94;10375851;28;20052;-57
2024/02/24 18:39:09;;;;;;;0.88;0.20;;;;;;;8.24;56.76;99292.84;10375317;28;20752;-58
2024/02/24 18:44:11;;;;;;;1.77;0.20;;;;;;;8.12;56.71;99300.50;10379038;28;20057;-57
2024/02/24 18:49:12;;;;;;;0.88;0.17;;;;;;;8.04;56.99;99308.66;10373105;28;20050;-60
2024/02/24 18:54:14;;;;;;;0.52;0.43;;;;;;;7.93;57.38;99312.59;10378573;28;20050;-58
2024/02/24 18:59:15;;;;;;;1.67;0.30;;;;;;;7.82;57.43;99315.75;10370175;28;20050;-60
2024/02/24 19:04:17;;;;;;;1.52;0.40;;;;;;;7.67;58.03;99320.25;10374678;28;20056;-59
2024/02/24 19:09:19;;;;;;;1.40;0.30;;;;;;;7.59;58.40;99321.16;10369147;28;20159;-59
2024/02/24 19:14:21;;;;;;;0.65;0.30;;;;;;;7.51;58.44;99326.59;10353294;28;20314;-59
2024/02/24 19:19:22;;;;;;;0.50;0.32;;;;;;;7.62;58.44;99334.19;10373729;28;20058;-59
2024/02/24 19:24:24;;;;;;;0.88;0.40;;;;;;;7.77;57.54;99333.38;10359471;28;20539;-59
2024/02/24 19:29:25;;;;;;;1.00;0.20;;;;;;;7.80;58.05;99341.00;10367647;28;20060;-60
2024/02/24 19:34:27;;;;;;;1.20;0.60;;;;;;;7.75;58.17;99342.38;10368695;28;20053;-59
2024/02/24 19:39:28;;;;;;;1.80;0.80;;;;;;;7.66;58.60;99332.81;10371642;28;20045;-59
2024/02/24 19:44:30;;;;;;;3.35;1.48;;;;;;;7.63;58.47;99325.13;10371449;28;20046;-59
2024/02/24 19:49:31;;;;;;;4.10;1.02;;;;;;;7.67;58.92;99334.44;10378012;28;20042;-59
2024/02/24 19:54:34;;;;;;;1.13;0.65;;;;;;;7.73;58.87;99332.91;10380864;28;20050;-59
2024/02/24 19:59:38;;;;;;;0.52;0.28;;;;;;;7.66;59.00;99335.47;10359076;28;20053;-58
2024/02/24 20:04:40;;;;;;;3.22;0.50;;;;;;;7.59;58.99;99334.53;10350790;28;20062;-58
2024/02/24 20:09:41;;;;;;;0.93;0.40;;;;;;;7.59;58.95;99331.84;10376726;28;20060;-58
2024/02/24 20:14:48;;;;;;;2.08;0.30;;;;;;;7.61;59.04;99339.72;10373173;28;20059;-58
2024/02/24 20:19:50;;;;;;;4.13;0.40;;;;;;;7.60;58.82;99343.38;10375117;28;20050;-58
2024/02/24 20:24:51;;;;;;;1.70;0.30;;;;;;;7.61;58.96;99337.03;10375449;28;20480;-58
2024/02/24 20:29:53;;;;;;;1.70;0.60;;;;;;;7.57;59.34;99341.91;10366933;28;20137;-59
2024/02/24 20:34:54;;;;;;;1.70;0.40;;;;;;;7.62;60.02;99338.69;10373227;28;20100;-59
2024/02/24 20:39:56;;;;;;;2.40;0.68;;;;;;;7.54;59.82;99344.94;10377884;28;20045;-59
2024/02/24 20:44:57;;;;;;;0.88;0.60;;;;;;;7.43;60.04;99335.50;10372717;28;20056;-58
2024/02/24 20:50:00;;;;;;;4.78;0.57;;;;;;;7.29;60.68;99339.00;10366312;28;20053;-59
2024/02/24 20:55:02;;;;;;;4.68;1.67;;;;;;;7.16;61.28;99331.56;10371184;28;20050;-58
2024/02/24 21:00:05;;;;;;;2.58;1.15;;;;;;;7.14;60.90;99349.63;10369386;28;20060;-59
2024/02/24 21:05:07;;;;;;;3.13;0.80;;;;;;;7.09;61.47;99344.81;10367389;28;20627;-59
2024/02/24 21:10:09;;;;;;;2.90;0.85;;;;;;;6.97;61.21;99348.06;10364163;28;20084;-58
2024/02/24 21:15:10;;;;;;;1.13;0.68;;;;;;;6.81;61.89;99347.16;10367158;28;20044;-58
2024/02/24 21:20:12;;;;;;;1.60;0.68;;;;;;;6.68;62.11;99355.75;10365099;28;21080;-58
2024/02/24 21:25:14;;;;;;;2.42;0.90;;;;;;;6.54;62.17;99348.50;10375588;28;20043;-58
2024/02/24 21:30:15;;;;;;;2.17;0.80;;;;;;;6.43;62.48;99351.56;10376044;28;20053;-58
2024/02/24 21:35:17;;;;;;;2.95;0.85;;;;;;;6.26;62.23;99346.28;10371555;28;20053;-58
2024/02/24 21:40:18;;;;;;;5.43;1.20;;;;;;;6.12;62.33;99347.00;10363442;28;20550;-61
2024/02/24 21:45:20;;;;;;;6.85;2.72;;;;;;;5.96;63.32;99350.53;10358373;28;20061;-58
2024/02/24 21:50:21;;;;;;;9.18;3.10;;;;;;;5.71;63.52;99352.41;10367926;28;20104;-57
2024/02/24 21:55:24;;;;;;;7.22;3.00;;;;;;;5.64;63.88;99357.56;10363601;28;20129;-58
2024/02/24 22:00:26;;;;;;;5.72;1.98;;;;;;;5.53;64.11;99345.44;10359743;28;20041;-59
2024/02/24 22:05:27;;;;;;;6.63;3.92;;;;;;;5.46;63.78;99348.94;10369584;28;20482;-58
2024/02/24 22:10:29;;;;;;;8.52;3.05;;;;;;;5.33;63.99;99344.97;10365271;28;20046;-58
2024/02/24 22:15:31;;;;;;;5.80;3.38;;;;;;;5.24;63.93;99345.13;10368238;28;20048;-58
2024/02/24 22:20:32;;;;;;;10.57;4.38;;;;;;;5.11;64.34;99353.59;10368265;28;20512;-59
2024/02/24 22:25:34;;;;;;;8.43;2.70;;;;;;;4.91;65.20;99353.91;10362734;28;20073;-59
2024/02/24 22:30:35;;;;;;;3.63;2.00;;;;;;;4.88;65.25;99348.91;10367890;28;20057;-60
2024/02/24 22:35:37;;;;;;;6.40;2.35;;;;;;;4.89;65.07;99349.75;10365438;28;20053;-59
2024/02/24 22:40:38;;;;;;;8.93;3.22;;;;;;;4.73;65.62;99351.38;10371430;28;20064;-60
2024/02/24 22:45:40;;;;;;;6.90;3.80;;;;;;;4.69;65.60;99346.56;10367728;28;20514;-60
2024/02/24 22:50:41;;;;;;;4.18;1.90;;;;;;;4.67;65.34;99349.38;10375448;28;20504;-59
2024/02/24 22:55:43;;;;;;;8.23;2.55;;;;;;;4.62;65.59;99349.03;10371412;28;20133;-60
2024/02/24 23:00:44;;;;;;;3.95;2.17;;;;;;;4.56;65.44;99350.53;10374419;28;20037;-60
2024/02/24 23:05:46;;;;;;;3.80;2.25;;;;;;;4.48;65.59;99339.84;10367835;28;20120;-61
2024/02/24 23:10:47;;;;;;;6.38;3.00;;;;;;;4.42;66.16;99340.47;10372481;28;20068;-59
2024/02/24 23:15:49;;;;;;;8.82;3.00;;;;;;;4.36;66.09;99336.66;10367996;28;20056;-59
2024/02/24 23:20:51;;;;;;;6.75;3.05;;;;;;;4.29;66.32;99346.25;10374522;28;20041;-60
2024/02/24 23:25:52;;;;;;;6.78;3.00;;;;;;;4.28;66.52;99357.88;10369622;28;20092;-60
2024/02/24 23:30:55;;;;;;;8.75;2.70;;;;;;;4.28;66.69;99359.72;10368356;28;20057;-60
2024/02/24 23:35:57;;;;;;;6.03;2.40;;;;;;;4.12;66.68;99360.47;10374441;28;20041;-60
2024/02/24 23:40:58;;;;;;;7.60;2.67;;;;;;;4.06;67.12;99358.47;10367609;28;20053;-60